Time;durP1;ratioP1;P1;durP2;ratioP2;P2;SDS_P1;SDS_P2;PMS_P1;PMS_P2;Temp;Humidity;BMP_temperature;BMP_pressure;BME280_temperature;BME280_humidity;BME280_pressure;Samples;Min_cycle;Max_cycle;Signal;HPM_P1;HPM_P2
2022/05/10 00:02:54;;;;;;;7.93;7.10;;;14.80;95.20;;;;;;6229924;28;20567;-84
2022/05/10 00:05:56;;;;;;;7.72;6.57;;;14.80;95.40;;;;;;6230089;28;20128;-83
2022/05/10 00:08:57;;;;;;;10.02;6.55;;;14.70;95.40;;;;;;6229906;28;20177;-84
2022/05/10 00:12:00;;;;;;;9.77;6.30;;;14.70;95.50;;;;;;6231445;28;20049;-83
2022/05/10 00:15:02;;;;;;;8.95;6.18;;;14.70;95.50;;;;;;6230569;28;20046;-84
2022/05/10 00:18:05;;;;;;;9.40;6.38;;;14.60;95.50;;;;;;6230507;28;20054;-84
2022/05/10 00:21:09;;;;;;;9.00;6.72;;;14.60;95.60;;;;;;6232777;28;20049;-84
2022/05/10 00:24:10;;;;;;;9.68;6.43;;;14.50;95.70;;;;;;6230415;28;20050;-84
2022/05/10 00:27:12;;;;;;;8.93;6.70;;;14.50;95.80;;;;;;6228833;28;20060;-83
2022/05/10 00:30:14;;;;;;;6.55;5.95;;;14.50;95.90;;;;;;6230871;28;20137;-84
2022/05/10 00:33:20;;;;;;;10.57;6.75;;;14.40;95.80;;;;;;6228577;28;20045;-84
2022/05/10 00:36:24;;;;;;;8.57;6.50;;;14.40;95.80;;;;;;6230117;28;20455;-84
2022/05/10 00:39:26;;;;;;;8.73;6.75;;;14.30;95.80;;;;;;6228804;28;20061;-84
2022/05/10 00:42:32;;;;;;;8.57;6.85;;;14.30;95.80;;;;;;6230334;28;20050;-83
2022/05/10 00:45:42;;;;;;;10.93;6.97;;;14.30;95.90;;;;;;6228340;28;20650;-84
2022/05/10 00:48:48;;;;;;;10.85;7.15;;;14.30;95.90;;;;;;6229328;28;20101;-84
2022/05/10 00:51:55;;;;;;;9.23;7.30;;;14.30;96.00;;;;;;6229464;28;20050;-84
2022/05/10 00:55:05;;;;;;;11.00;6.63;;;14.20;96.00;;;;;;6223534;28;20048;-84
2022/05/10 00:58:16;;;;;;;12.32;6.72;;;14.20;96.10;;;;;;6217257;28;20052;-84
2022/05/10 01:01:31;;;;;;;10.05;6.40;;;14.10;96.00;;;;;;6229187;28;20136;-84
2022/05/10 01:04:40;;;;;;;9.90;7.10;;;14.00;96.00;;;;;;6229209;28;20054;-83
2022/05/10 01:07:49;;;;;;;12.32;6.60;;;14.00;96.10;;;;;;6228783;28;20389;-84
2022/05/10 01:10:56;;;;;;;8.90;6.68;;;14.00;96.10;;;;;;6229429;28;20046;-83
2022/05/10 01:14:04;;;;;;;12.48;7.25;;;13.90;96.10;;;;;;6228118;28;20080;-84
2022/05/10 01:17:05;;;;;;;7.28;6.32;;;13.90;96.10;;;;;;6228522;28;20050;-84
2022/05/10 01:20:11;;;;;;;10.48;6.22;;;13.90;96.10;;;;;;6227964;28;20052;-84
2022/05/10 01:23:42;;;;;;;7.32;6.28;;;13.80;96.00;;;;;;6228338;28;20208;-84
2022/05/10 01:26:56;;;;;;;9.02;6.65;;;13.70;96.20;;;;;;6228941;28;20057;-85
2022/05/10 01:30:05;;;;;;;11.10;6.18;;;13.70;96.10;;;;;;6227956;28;20054;-85
2022/05/10 01:33:32;;;;;;;9.07;6.68;;;13.70;96.20;;;;;;6228383;28;20057;-84
2022/05/10 01:36:41;;;;;;;11.63;6.68;;;13.70;96.10;;;;;;6227837;28;20046;-84
2022/05/10 01:39:48;;;;;;;10.07;7.38;;;13.70;96.00;;;;;;6227225;28;20045;-84
2022/05/10 01:42:56;;;;;;;9.43;7.25;;;13.60;96.10;;;;;;6227928;28;20049;-84
2022/05/10 01:46:07;;;;;;;10.83;7.50;;;13.60;96.10;;;;;;6226789;28;20049;-83
2022/05/10 01:49:27;;;;;;;13.68;7.28;;;13.50;96.20;;;;;;6227984;28;20060;-83
2022/05/10 01:52:35;;;;;;;13.23;7.10;;;13.50;96.20;;;;;;6225596;28;20168;-83
2022/05/10 01:55:40;;;;;;;10.18;6.18;;;13.50;96.30;;;;;;6223940;28;20042;-83
2022/05/10 01:58:45;;;;;;;11.10;6.65;;;13.50;96.30;;;;;;6227663;28;20049;-84
2022/05/10 02:01:48;;;;;;;8.57;6.95;;;13.50;96.40;;;;;;6228752;28;20066;-83
2022/05/10 02:04:55;;;;;;;8.38;6.43;;;13.30;96.30;;;;;;6229432;28;20046;-83
2022/05/10 02:08:02;;;;;;;9.60;7.50;;;13.30;96.50;;;;;;6228197;28;20042;-83
2022/05/10 02:11:10;;;;;;;8.83;6.30;;;13.30;96.60;;;;;;6228951;28;20054;-84
2022/05/10 02:14:20;;;;;;;9.27;7.43;;;13.20;96.60;;;;;;6229042;28;20042;-84
2022/05/10 02:17:30;;;;;;;8.93;6.95;;;13.20;96.40;;;;;;6227291;28;20137;-84
2022/05/10 02:20:42;;;;;;;11.10;7.47;;;13.20;96.40;;;;;;6227240;28;20096;-85
2022/05/10 02:23:51;;;;;;;11.07;6.38;;;13.20;96.30;;;;;;6226473;28;20088;-84
2022/05/10 02:26:56;;;;;;;9.88;7.78;;;13.10;96.20;;;;;;6227658;28;20137;-84
2022/05/10 02:30:03;;;;;;;10.27;7.78;;;13.20;96.30;;;;;;6227619;28;20056;-85
2022/05/10 02:33:08;;;;;;;9.68;7.65;;;13.10;96.30;;;;;;6225698;28;20414;-85
2022/05/10 02:36:10;;;;;;;8.80;6.68;;;13.10;96.40;;;;;;6226517;28;20042;-84
2022/05/10 02:39:12;;;;;;;9.57;7.45;;;13.10;96.40;;;;;;6227275;28;20077;-84
2022/05/10 02:42:19;;;;;;;9.35;7.28;;;13.00;96.40;;;;;;6227560;28;20058;-84
2022/05/10 02:45:20;;;;;;;10.65;7.88;;;13.00;96.60;;;;;;6226621;28;20132;-84
2022/05/10 02:48:27;;;;;;;8.93;7.15;;;13.00;96.80;;;;;;6225640;28;20045;-83
2022/05/10 02:51:29;;;;;;;10.23;7.20;;;12.90;96.70;;;;;;6226589;28;20053;-85
2022/05/10 02:54:31;;;;;;;11.82;6.93;;;12.90;96.70;;;;;;6218855;28;20177;-85
2022/05/10 02:57:33;;;;;;;8.63;6.63;;;12.90;96.60;;;;;;6210448;28;20408;-84
2022/05/10 03:00:35;;;;;;;7.80;6.25;;;12.80;96.50;;;;;;6226428;28;20057;-85
2022/05/10 03:03:39;;;;;;;8.15;6.60;;;12.70;96.60;;;;;;6227621;28;20389;-84
2022/05/10 03:06:44;;;;;;;9.43;6.70;;;12.60;96.70;;;;;;6228089;28;20061;-84
2022/05/10 03:09:46;;;;;;;11.63;7.63;;;12.60;96.70;;;;;;6226400;28;20069;-84
2022/05/10 03:12:48;;;;;;;7.97;6.32;;;12.60;96.80;;;;;;6226519;28;20042;-84
2022/05/10 03:15:49;;;;;;;8.50;6.75;;;12.60;96.80;;;;;;6227359;28;20069;-84
2022/05/10 03:18:54;;;;;;;7.00;6.18;;;12.50;96.70;;;;;;6227409;28;20061;-84
2022/05/10 03:21:56;;;;;;;8.93;6.50;;;12.50;96.70;;;;;;6228119;28;20072;-84
2022/05/10 03:24:57;;;;;;;9.25;6.88;;;12.40;96.70;;;;;;6226654;28;20132;-84
2022/05/10 03:28:00;;;;;;;8.07;6.80;;;12.40;96.80;;;;;;6225462;28;20117;-84
2022/05/10 03:31:01;;;;;;;10.45;7.03;;;12.40;96.80;;;;;;6225057;28;20422;-83
2022/05/10 03:37:25;;;;;;;9.05;6.55;;;12.40;96.70;;;;;;6225578;28;20415;-83
2022/05/10 03:40:26;;;;;;;9.07;6.75;;;12.40;96.60;;;;;;6226962;28;20045;-84
2022/05/10 03:43:28;;;;;;;9.07;7.30;;;12.40;96.50;;;;;;6226793;28;20049;-83
2022/05/10 03:46:30;;;;;;;10.65;7.80;;;12.40;96.50;;;;;;6226301;28;20060;-83
2022/05/10 03:49:33;;;;;;;8.50;7.05;;;12.40;96.60;;;;;;6225661;28;20057;-83
2022/05/10 03:52:36;;;;;;;13.00;7.85;;;12.40;97.00;;;;;;6227004;28;20046;-85
2022/05/10 03:55:37;;;;;;;14.93;7.57;;;12.40;96.80;;;;;;6231701;28;20038;-85
2022/05/10 03:58:40;;;;;;;9.18;6.78;;;12.40;96.80;;;;;;6218789;28;20050;-83
2022/05/10 04:01:42;;;;;;;8.95;6.30;;;12.40;96.80;;;;;;6208925;28;20133;-84
2022/05/10 04:04:45;;;;;;;9.70;6.55;;;12.40;96.60;;;;;;6210720;28;20054;-83
2022/05/10 04:07:48;;;;;;;8.00;6.82;;;12.40;96.60;;;;;;6209681;28;20042;-82
2022/05/10 04:10:49;;;;;;;9.85;7.38;;;12.50;96.60;;;;;;6210482;28;20046;-83
2022/05/10 04:13:51;;;;;;;9.15;5.97;;;12.50;96.40;;;;;;6209959;28;20050;-84
2022/05/10 04:16:53;;;;;;;11.27;6.32;;;12.60;96.30;;;;;;6210989;28;20043;-84
2022/05/10 04:19:56;;;;;;;7.80;6.95;;;12.70;96.20;;;;;;6209227;28;20050;-83
2022/05/10 04:22:59;;;;;;;9.23;6.75;;;12.80;96.10;;;;;;6210667;28;20050;-83
2022/05/10 04:26:06;;;;;;;8.70;6.47;;;13.00;96.10;;;;;;6209199;28;20069;-83
2022/05/10 04:29:08;;;;;;;13.98;7.80;;;13.10;95.90;;;;;;6205111;28;20097;-83
2022/05/10 04:32:10;;;;;;;8.68;5.80;;;13.20;95.70;;;;;;6211341;28;20515;-84
2022/05/10 04:35:13;;;;;;;9.93;7.05;;;13.30;95.60;;;;;;6209720;28;20050;-83
2022/05/10 04:38:15;;;;;;;8.05;6.20;;;13.40;95.40;;;;;;6208927;28;20050;-84
2022/05/10 04:41:25;;;;;;;8.65;5.85;;;13.60;95.30;;;;;;6209782;28;20070;-83
2022/05/10 04:44:27;;;;;;;7.82;5.78;;;13.80;95.10;;;;;;6208467;28;20530;-83
2022/05/10 04:47:29;;;;;;;7.35;5.70;;;14.00;95.00;;;;;;6209508;28;20114;-83
2022/05/10 04:50:32;;;;;;;7.35;5.72;;;14.20;94.80;;;;;;6210426;28;20137;-84
2022/05/10 04:53:34;;;;;;;11.38;5.38;;;14.40;94.50;;;;;;6206133;28;20049;-85
2022/05/10 04:56:36;;;;;;;7.50;4.95;;;14.50;94.20;;;;;;6206998;28;20046;-84
2022/05/10 04:59:38;;;;;;;9.00;5.72;;;14.70;93.90;;;;;;6213286;28;20057;-85
2022/05/10 05:02:40;;;;;;;6.78;5.93;;;15.30;93.50;;;;;;6210383;28;20058;-83
2022/05/10 05:05:43;;;;;;;6.45;5.43;;;16.40;92.10;;;;;;6209680;28;20045;-83
2022/05/10 05:08:45;;;;;;;11.52;4.90;;;17.60;90.50;;;;;;6209585;28;20056;-84
2022/05/10 05:11:47;;;;;;;11.88;5.13;;;18.60;88.10;;;;;;6209278;28;20069;-84
2022/05/10 05:14:49;;;;;;;7.78;4.90;;;19.40;85.30;;;;;;6207167;28;20046;-83
2022/05/10 05:17:51;;;;;;;8.25;4.97;;;19.90;83.60;;;;;;6206721;28;20524;-83
2022/05/10 05:20:55;;;;;;;6.22;4.88;;;20.50;81.80;;;;;;6207499;28;20061;-84
2022/05/10 05:23:56;;;;;;;10.00;3.83;;;20.80;80.40;;;;;;6209172;28;20038;-83
2022/05/10 05:26:58;;;;;;;4.55;4.10;;;20.80;79.90;;;;;;6209364;28;20074;-83
2022/05/10 05:30:00;;;;;;;4.45;4.03;;;20.60;79.90;;;;;;6209999;28;20046;-84
2022/05/10 05:33:03;;;;;;;7.72;3.75;;;20.50;80.10;;;;;;6206625;28;20096;-83
2022/05/10 05:36:07;;;;;;;6.75;3.88;;;20.60;80.50;;;;;;6206468;28;20065;-83
2022/05/10 05:39:08;;;;;;;6.50;4.03;;;21.00;80.90;;;;;;6204345;28;20133;-83
2022/05/10 05:42:10;;;;;;;9.07;3.95;;;21.70;79.10;;;;;;6204473;28;20129;-83
2022/05/10 05:45:14;;;;;;;7.55;4.35;;;22.40;77.60;;;;;;6205513;28;20038;-83
2022/05/10 05:48:16;;;;;;;4.97;3.80;;;23.20;75.50;;;;;;6204124;28;20058;-83
2022/05/10 05:51:19;;;;;;;6.07;4.15;;;23.90;73.60;;;;;;6205354;28;20113;-83
2022/05/10 05:54:20;;;;;;;8.07;3.63;;;24.60;72.00;;;;;;6204502;28;20046;-83
2022/05/10 05:57:23;;;;;;;10.50;4.57;;;25.10;69.00;;;;;;6204842;28;20057;-84
2022/05/10 06:00:26;;;;;;;7.55;4.22;;;25.50;67.50;;;;;;6209885;28;20049;-82
2022/05/10 06:03:28;;;;;;;6.07;4.47;;;26.00;65.30;;;;;;6203064;28;20185;-83
2022/05/10 06:06:31;;;;;;;6.93;4.32;;;26.80;63.60;;;;;;6203065;28;20081;-84
2022/05/10 06:09:33;;;;;;;4.68;3.92;;;27.90;60.50;;;;;;6203012;28;20056;-84
2022/05/10 06:12:35;;;;;;;9.25;5.82;;;28.60;57.80;;;;;;6203713;28;20121;-84
2022/05/10 06:15:37;;;;;;;6.20;3.85;;;28.90;56.30;;;;;;6203742;28;20061;-84
2022/05/10 06:18:41;;;;;;;9.98;4.32;;;29.00;54.60;;;;;;6203586;28;20054;-84
2022/05/10 06:21:44;;;;;;;5.55;4.32;;;29.10;54.30;;;;;;6201391;28;20046;-85
2022/05/10 06:24:45;;;;;;;6.60;3.45;;;29.10;54.10;;;;;;6199150;28;20050;-85
2022/05/10 06:27:48;;;;;;;5.78;4.13;;;29.10;53.70;;;;;;6209845;28;20048;-84
2022/05/10 06:30:50;;;;;;;8.35;4.63;;;29.20;53.20;;;;;;6211592;28;20060;-83
2022/05/10 06:33:52;;;;;;;11.07;4.40;;;29.10;52.90;;;;;;6209287;28;20110;-83
2022/05/10 06:36:55;;;;;;;6.85;4.75;;;28.50;53.50;;;;;;6203679;28;20065;-83
2022/05/10 06:39:57;;;;;;;7.07;4.50;;;29.00;52.90;;;;;;6202829;28;20053;-84
2022/05/10 06:42:59;;;;;;;5.18;3.65;;;30.60;50.40;;;;;;6202241;28;20518;-84
2022/05/10 06:46:01;;;;;;;6.93;4.07;;;32.10;47.20;;;;;;6202805;28;20043;-84
2022/05/10 06:49:05;;;;;;;6.32;3.67;;;33.30;44.30;;;;;;6203561;28;20125;-85
2022/05/10 06:52:08;;;;;;;6.07;3.80;;;34.40;41.90;;;;;;6199375;28;20421;-84
2022/05/10 06:55:10;;;;;;;5.60;3.95;;;35.40;39.70;;;;;;6137383;28;20049;-85
2022/05/10 06:58:12;;;;;;;7.40;3.80;;;35.70;38.00;;;;;;6200136;28;20125;-84
2022/05/10 07:01:14;;;;;;;8.05;4.70;;;35.40;38.00;;;;;;6216875;28;20050;-86
2022/05/10 07:04:16;;;;;;;3.50;3.20;;;35.00;38.20;;;;;;6225013;28;20068;-85
2022/05/10 07:07:19;;;;;;;5.15;3.63;;;34.60;38.90;;;;;;6226708;28;20049;-84
2022/05/10 07:10:21;;;;;;;3.78;3.47;;;34.30;38.70;;;;;;6225358;28;20046;-84
2022/05/10 07:13:24;;;;;;;10.38;4.15;;;33.90;38.90;;;;;;6223960;28;20049;-86
2022/05/10 07:16:26;;;;;;;3.63;3.05;;;34.10;39.00;;;;;;6222508;28;20065;-86
2022/05/10 07:19:28;;;;;;;9.98;3.38;;;34.40;38.40;;;;;;6223216;28;20058;-86
2022/05/10 07:22:31;;;;;;;6.40;3.70;;;35.00;37.90;;;;;;6223278;28;20054;-87
2022/05/10 07:25:33;;;;;;;5.97;3.72;;;35.40;37.50;;;;;;6222550;28;20038;-86
2022/05/10 07:28:35;;;;;;;3.90;3.25;;;35.40;37.20;;;;;;6210802;28;20042;-86
2022/05/10 07:31:37;;;;;;;7.18;3.20;;;34.30;37.90;;;;;;6226114;28;20462;-85
2022/05/10 07:34:39;;;;;;;4.93;3.53;;;32.00;41.10;;;;;;6223062;28;20082;-84
2022/05/10 07:37:42;;;;;;;6.47;3.95;;;30.30;44.20;;;;;;6226595;28;20042;-86
2022/05/10 07:40:47;;;;;;;5.38;3.70;;;28.90;47.00;;;;;;6226299;28;20496;-85
2022/05/10 07:43:49;;;;;;;4.25;3.67;;;28.00;48.70;;;;;;6227476;28;20042;-85
2022/05/10 07:46:51;;;;;;;8.40;4.22;;;27.40;51.00;;;;;;6229017;28;20045;-84
2022/05/10 07:49:53;;;;;;;5.47;3.92;;;26.80;52.40;;;;;;6227894;28;20107;-85
2022/05/10 07:52:58;;;;;;;6.93;4.25;;;26.30;54.70;;;;;;6227785;28;20131;-85
2022/05/10 07:56:01;;;;;;;7.60;3.78;;;26.00;56.00;;;;;;6224780;28;20054;-83
2022/05/10 07:59:03;;;;;;;5.85;3.80;;;26.00;57.50;;;;;;6218181;28;20054;-85
2022/05/10 08:02:06;;;;;;;5.38;4.32;;;25.90;58.20;;;;;;6225904;28;20056;-84
2022/05/10 08:05:08;;;;;;;7.78;4.00;;;25.60;58.40;;;;;;6208115;28;20211;-84
2022/05/10 08:08:12;;;;;;;6.07;4.90;;;25.30;60.00;;;;;;6202527;28;20046;-84
2022/05/10 08:11:14;;;;;;;5.00;3.90;;;25.30;60.30;;;;;;6203496;28;20050;-84
2022/05/10 08:14:16;;;;;;;5.85;4.35;;;25.30;60.50;;;;;;6204264;28;20050;-84
2022/05/10 08:17:18;;;;;;;12.25;5.43;;;25.30;60.20;;;;;;6201408;28;20058;-86
2022/05/10 08:20:20;;;;;;;7.47;3.88;;;25.50;60.20;;;;;;6201421;28;20423;-84
2022/05/10 08:23:25;;;;;;;6.50;4.60;;;25.70;59.70;;;;;;6201586;28;20061;-85
2022/05/10 08:26:28;;;;;;;5.32;3.67;;;26.00;59.80;;;;;;6203907;28;20527;-83
2022/05/10 08:29:29;;;;;;;7.70;3.78;;;26.30;59.80;;;;;;6202038;28;20142;-83
2022/05/10 08:32:32;;;;;;;10.85;4.32;;;26.40;59.50;;;;;;6200689;28;20500;-83
2022/05/10 08:35:34;;;;;;;7.80;3.47;;;26.60;58.10;;;;;;6202296;28;20050;-82
2022/05/10 08:38:37;;;;;;;4.07;3.25;;;26.80;57.90;;;;;;6202885;28;20133;-82
2022/05/10 08:41:46;;;;;;;5.38;4.10;;;27.00;57.30;;;;;;6202594;28;20047;-83
2022/05/10 08:44:54;;;;;;;6.00;3.90;;;27.10;57.10;;;;;;6202338;28;20101;-84
2022/05/10 08:47:57;;;;;;;6.55;3.80;;;27.10;57.00;;;;;;6200850;28;20046;-84
2022/05/10 08:50:59;;;;;;;7.88;3.80;;;27.20;56.60;;;;;;6202822;28;20054;-84
2022/05/10 08:54:03;;;;;;;6.95;3.65;;;27.30;56.40;;;;;;6201595;28;20047;-84
2022/05/10 08:57:12;;;;;;;8.13;3.90;;;27.50;56.20;;;;;;6208348;28;20062;-84
2022/05/10 09:00:28;;;;;;;4.20;3.80;;;27.60;55.80;;;;;;6219829;28;20046;-84
2022/05/10 09:03:40;;;;;;;3.58;3.20;;;27.70;56.00;;;;;;6224463;28;20046;-83
2022/05/10 09:06:51;;;;;;;9.02;4.25;;;27.80;55.20;;;;;;6225320;28;20042;-85
2022/05/10 09:10:04;;;;;;;8.70;4.13;;;28.10;55.00;;;;;;6224721;28;20053;-89
2022/05/10 09:13:10;;;;;;;4.82;3.63;;;28.10;54.50;;;;;;6225887;28;20041;-84
2022/05/10 09:16:14;;;;;;;7.20;4.22;;;28.10;53.90;;;;;;6225675;28;20418;-84
2022/05/10 09:19:19;;;;;;;5.57;3.90;;;28.30;54.80;;;;;;6225272;28;20050;-87
2022/05/10 09:22:28;;;;;;;13.07;3.28;;;28.50;54.10;;;;;;6225186;28;20499;-87
2022/05/10 09:25:36;;;;;;;4.95;3.53;;;28.70;53.40;;;;;;6223374;28;20064;-87
2022/05/10 09:28:44;;;;;;;4.72;3.15;;;29.00;53.10;;;;;;6208654;28;20050;-84
2022/05/10 09:35:14;;;;;;;3.30;2.80;;;29.20;51.50;;;;;;6224561;28;20530;-86
2022/05/10 09:41:48;;;;;;;6.65;3.05;;;29.30;50.50;;;;;;6223604;28;20133;-84
2022/05/10 09:44:58;;;;;;;5.63;3.07;;;29.30;50.50;;;;;;6223681;28;20129;-84
2022/05/10 09:48:03;;;;;;;3.15;2.85;;;29.40;49.90;;;;;;6223101;28;20045;-88
2022/05/10 09:51:24;;;;;;;6.22;3.30;;;29.40;50.00;;;;;;6190596;28;20054;-86
2022/05/10 09:54:34;;;;;;;4.30;2.53;;;29.50;50.60;;;;;;6202524;28;20054;-84
2022/05/10 09:57:40;;;;;;;4.25;2.75;;;29.90;48.50;;;;;;6210773;28;20049;-86
2022/05/10 10:00:43;;;;;;;5.05;2.70;;;30.70;48.00;;;;;;6201908;28;20435;-85
2022/05/10 10:03:46;;;;;;;4.78;2.63;;;31.60;46.70;;;;;;6200127;28;20046;-85
2022/05/10 10:07:04;;;;;;;3.10;2.55;;;31.90;45.20;;;;;;6223566;28;20053;-86
2022/05/10 10:10:16;;;;;;;3.35;2.78;;;31.80;45.30;;;;;;6225278;28;20077;-85
2022/05/10 10:13:32;;;;;;;5.57;2.60;;;31.60;45.40;;;;;;6226462;28;20050;-84
2022/05/10 10:16:36;;;;;;;6.30;2.88;;;31.40;45.60;;;;;;6223960;28;20050;-85
2022/05/10 10:19:43;;;;;;;6.22;2.08;;;31.20;45.90;;;;;;6223581;28;20414;-85
2022/05/10 10:22:50;;;;;;;5.13;2.53;;;31.10;46.10;;;;;;6224585;28;20049;-86
2022/05/10 10:25:58;;;;;;;3.53;2.70;;;31.20;45.70;;;;;;6223010;28;20511;-86
2022/05/10 10:29:17;;;;;;;3.40;2.47;;;31.20;46.10;;;;;;6233933;28;20064;-85
2022/05/10 10:32:24;;;;;;;7.10;2.65;;;31.10;44.70;;;;;;6223775;28;20539;-86
2022/05/10 10:35:33;;;;;;;5.20;2.92;;;31.30;44.40;;;;;;6223580;28;20117;-87
2022/05/10 10:38:46;;;;;;;3.67;2.50;;;31.50;45.00;;;;;;6223540;28;20049;-88
2022/05/10 10:41:52;;;;;;;6.85;2.13;;;31.70;44.40;;;;;;6224381;28;20127;-87
2022/05/10 10:44:58;;;;;;;3.53;2.13;;;32.10;43.40;;;;;;6223313;28;20115;-87
2022/05/10 10:48:09;;;;;;;8.98;2.30;;;31.90;43.10;;;;;;6224141;28;20586;-86
2022/05/10 10:51:12;;;;;;;2.05;1.77;;;31.90;43.10;;;;;;6223908;28;20159;-86
2022/05/10 10:58:24;;;;;;;7.50;2.10;;;32.50;41.90;;;;;;6219857;28;20529;-86
2022/05/10 11:01:45;;;;;;;4.03;1.92;;;32.80;41.60;;;;;;6170150;28;20046;-84
2022/05/10 11:05:02;;;;;;;4.78;2.53;;;33.00;40.80;;;;;;6196838;28;20038;-82
2022/05/10 11:08:14;;;;;;;7.82;2.05;;;33.00;40.80;;;;;;6215735;28;20049;-82
2022/05/10 11:11:28;;;;;;;2.10;1.77;;;32.90;40.20;;;;;;6225318;28;20140;-86
2022/05/10 11:14:50;;;;;;;2.92;1.80;;;33.00;40.30;;;;;;6228763;28;20049;-83
2022/05/10 11:18:12;;;;;;;4.75;2.45;;;33.10;40.20;;;;;;6227358;28;20419;-85
2022/05/10 11:21:24;;;;;;;4.22;1.65;;;33.30;40.10;;;;;;6198587;28;20077;-82
2022/05/10 11:24:37;;;;;;;3.85;1.50;;;33.60;39.70;;;;;;6200481;28;20132;-82
2022/05/10 11:28:04;;;;;;;5.03;1.70;;;33.70;38.60;;;;;;6210906;28;20173;-82
2022/05/10 11:31:11;;;;;;;4.47;1.88;;;33.80;38.30;;;;;;6218158;28;20053;-82
2022/05/10 11:34:24;;;;;;;;;;;34.00;38.50;;;;;;6180656;28;20051;-83
2022/05/10 11:37:36;;;;;;;4.40;1.58;;;34.10;38.00;;;;;;6206052;22;19922;-79
2022/05/10 11:41:04;;;;;;;3.15;1.58;;;34.20;38.10;;;;;;6212636;28;20054;-78
2022/05/10 11:44:25;;;;;;;3.35;1.60;;;34.30;37.00;;;;;;6203585;28;20633;-79
2022/05/10 11:48:08;;;;;;;2.33;1.88;;;34.40;36.60;;;;;;6202857;28;20046;-77
2022/05/10 11:51:42;;;;;;;4.55;1.70;;;34.40;36.90;;;;;;6204075;28;20057;-79
2022/05/10 11:55:11;;;;;;;7.22;1.73;;;34.40;36.60;;;;;;6227707;28;20523;-78
2022/05/10 11:58:15;;;;;;;3.55;1.73;;;34.50;36.20;;;;;;6207986;28;20048;-80
2022/05/10 12:01:42;;;;;;;4.75;1.63;;;34.70;36.10;;;;;;6202656;28;20396;-78
2022/05/10 12:04:45;;;;;;;1.98;1.50;;;34.90;35.50;;;;;;6203418;28;20126;-79
2022/05/10 12:07:50;;;;;;;6.22;1.83;;;35.10;35.40;;;;;;6181396;28;20125;-80
2022/05/10 12:10:53;;;;;;;4.60;1.77;;;35.20;34.90;;;;;;6179503;28;20417;-80
2022/05/10 12:24:13;;;;;;;1.98;1.40;;;35.00;34.30;;;;;;6178872;28;20047;-80
2022/05/10 12:27:36;;;;;;;4.65;1.27;;;34.90;34.50;;;;;;6195346;28;20124;-79
2022/05/10 12:30:38;;;;;;;4.32;1.50;;;34.80;34.60;;;;;;6223381;28;20049;-80
2022/05/10 12:33:57;;;;;;;2.88;1.27;;;34.70;34.70;;;;;;6226286;28;20427;-80
2022/05/10 12:37:49;;;;;;;1.98;1.42;;;34.60;33.50;;;;;;6226043;28;20048;-80
2022/05/10 12:41:10;;;;;;;1.70;1.20;;;34.40;34.20;;;;;;6229840;28;20076;-80
2022/05/10 12:44:37;;;;;;;6.72;2.30;;;34.60;33.80;;;;;;6215208;28;20050;-80
2022/05/10 12:47:59;;;;;;;1.83;1.30;;;34.50;33.90;;;;;;6227597;28;20087;-79
2022/05/10 12:51:11;;;;;;;1.42;1.13;;;34.40;33.40;;;;;;6229404;28;20046;-80
2022/05/10 12:54:15;;;;;;;1.48;1.20;;;34.50;34.10;;;;;;6210683;28;20141;-81
2022/05/10 12:57:26;;;;;;;4.13;1.20;;;34.50;33.60;;;;;;6207773;28;20048;-81
2022/05/10 13:00:33;;;;;;;3.17;1.42;;;34.30;33.60;;;;;;6222424;28;20046;-79
2022/05/10 13:03:37;;;;;;;5.32;1.60;;;34.10;34.10;;;;;;6228193;28;20096;-79
2022/05/10 13:06:58;;;;;;;1.55;1.40;;;34.20;34.30;;;;;;6219007;28;20125;-81
2022/05/10 13:10:03;;;;;;;3.60;1.73;;;34.10;34.70;;;;;;6182758;28;20070;-80
2022/05/10 13:13:11;;;;;;;1.95;1.40;;;34.30;34.70;;;;;;6183762;28;20047;-79
2022/05/10 13:16:17;;;;;;;3.40;1.65;;;34.40;34.30;;;;;;6180729;28;20130;-82
2022/05/10 13:19:22;;;;;;;3.20;1.40;;;34.40;33.60;;;;;;6181773;28;20050;-80
2022/05/10 13:22:25;;;;;;;2.58;1.52;;;34.30;34.90;;;;;;6182353;28;20050;-81
2022/05/10 13:25:32;;;;;;;5.72;1.73;;;34.30;34.00;;;;;;6191612;28;20069;-82
2022/05/10 13:28:49;;;;;;;2.83;1.40;;;34.30;33.70;;;;;;6236363;28;20121;-82
2022/05/10 13:31:51;;;;;;;2.47;1.38;;;34.30;33.90;;;;;;6240458;28;20058;-83
2022/05/10 13:34:54;;;;;;;5.68;2.00;;;34.30;34.40;;;;;;6236771;28;20053;-82
2022/05/10 13:37:59;;;;;;;4.15;1.80;;;34.20;34.80;;;;;;6233001;28;20052;-81
2022/05/10 13:41:03;;;;;;;2.20;1.50;;;34.00;34.20;;;;;;6233608;28;20050;-81
2022/05/10 13:44:11;;;;;;;3.42;1.42;;;33.90;34.50;;;;;;6235028;28;20546;-81
2022/05/10 13:47:27;;;;;;;4.30;2.22;;;33.90;35.00;;;;;;6234896;28;20046;-82
2022/05/10 13:50:30;;;;;;;3.55;1.58;;;33.70;35.20;;;;;;6231753;28;20077;-83
2022/05/10 13:53:34;;;;;;;1.88;1.55;;;33.40;35.90;;;;;;6232040;28;20049;-82
2022/05/10 13:56:39;;;;;;;3.97;1.42;;;33.30;36.50;;;;;;6228002;28;20049;-82
2022/05/10 13:59:43;;;;;;;3.22;1.73;;;33.30;36.20;;;;;;6219787;28;20448;-83
2022/05/10 14:02:45;;;;;;;3.70;1.48;;;33.20;36.30;;;;;;6231913;28;20046;-81
2022/05/10 14:05:47;;;;;;;4.18;1.92;;;32.90;37.20;;;;;;6232197;28;20057;-84
2022/05/10 14:08:49;;;;;;;3.28;1.52;;;32.70;37.40;;;;;;6200587;28;20043;-83
2022/05/10 14:11:52;;;;;;;2.95;1.90;;;32.50;37.80;;;;;;6180882;28;20280;-81
2022/05/10 14:14:58;;;;;;;3.38;1.83;;;32.40;37.80;;;;;;6181393;28;20117;-81
2022/05/10 14:18:05;;;;;;;5.85;1.85;;;32.30;37.90;;;;;;6183128;28;20508;-82
2022/05/10 14:21:16;;;;;;;3.53;1.80;;;32.20;38.00;;;;;;6181704;28;20468;-81
2022/05/10 14:24:19;;;;;;;4.55;2.35;;;32.20;38.00;;;;;;6179802;28;20039;-82
2022/05/10 14:27:23;;;;;;;2.25;1.60;;;32.10;38.30;;;;;;6199835;28;20407;-81
2022/05/10 14:30:28;;;;;;;10.73;2.42;;;32.20;39.20;;;;;;6224839;28;20093;-81
2022/05/10 14:33:38;;;;;;;7.10;2.03;;;32.30;38.40;;;;;;6228530;28;20419;-81
2022/05/10 14:36:42;;;;;;;3.53;1.50;;;32.40;37.90;;;;;;6228205;28;20050;-81
2022/05/10 14:39:44;;;;;;;3.72;2.20;;;32.50;38.20;;;;;;6227288;28;20050;-82
2022/05/10 14:42:58;;;;;;;2.97;1.67;;;32.50;38.00;;;;;;6228897;28;20467;-82
2022/05/10 14:46:26;;;;;;;4.03;2.15;;;32.60;37.40;;;;;;6213492;28;20039;-81
2022/05/10 14:49:34;;;;;;;2.97;1.65;;;32.90;37.90;;;;;;6182173;28;20126;-81
2022/05/10 14:52:37;;;;;;;3.30;2.20;;;33.10;37.30;;;;;;6178762;28;20147;-81
2022/05/10 14:55:40;;;;;;;2.42;2.22;;;33.20;37.20;;;;;;6199685;28;20046;-81
2022/05/10 14:58:44;;;;;;;4.40;1.63;;;33.30;37.70;;;;;;6209957;28;20050;-81
2022/05/10 15:01:47;;;;;;;11.35;2.15;;;33.40;37.20;;;;;;6211583;28;20070;-81
2022/05/10 15:04:50;;;;;;;2.88;1.80;;;33.50;37.60;;;;;;6202056;28;20058;-82
2022/05/10 15:07:52;;;;;;;2.95;1.75;;;33.40;37.20;;;;;;6200273;28;20394;-81
2022/05/10 15:10:55;;;;;;;2.55;1.83;;;33.30;37.30;;;;;;6189817;28;20058;-82
2022/05/10 15:13:58;;;;;;;13.02;2.10;;;33.00;37.00;;;;;;6204740;28;20054;-83
2022/05/10 15:17:01;;;;;;;10.57;2.25;;;32.70;37.60;;;;;;6204311;28;20052;-84
2022/05/10 15:20:04;;;;;;;2.15;1.67;;;32.40;38.20;;;;;;6204479;28;20046;-82
2022/05/10 15:23:06;;;;;;;4.80;2.05;;;32.00;39.40;;;;;;6204235;28;20109;-82
2022/05/10 15:26:14;;;;;;;4.50;1.85;;;31.70;40.10;;;;;;6206354;28;20090;-82
2022/05/10 15:29:22;;;;;;;4.15;2.10;;;31.50;40.30;;;;;;6225360;28;20042;-82
2022/05/10 15:32:24;;;;;;;3.03;2.00;;;31.20;40.40;;;;;;6232995;28;20287;-82
2022/05/10 15:35:27;;;;;;;8.95;2.00;;;31.00;40.60;;;;;;6230192;28;20042;-82
2022/05/10 15:38:30;;;;;;;2.08;1.88;;;30.80;41.00;;;;;;6231521;28;20053;-82
2022/05/10 15:41:41;;;;;;;4.65;2.13;;;30.60;41.80;;;;;;6231015;28;20046;-83
2022/05/10 15:44:46;;;;;;;2.50;1.98;;;30.60;42.30;;;;;;6222948;28;20054;-83
2022/05/10 15:47:50;;;;;;;3.83;2.17;;;30.60;42.10;;;;;;6228917;28;20499;-82
2022/05/10 15:50:55;;;;;;;5.72;2.40;;;30.80;41.60;;;;;;6214632;28;20086;-82
2022/05/10 15:54:10;;;;;;;5.38;2.35;;;31.10;41.80;;;;;;6200610;28;20061;-81
2022/05/10 15:57:55;;;;;;;5.45;1.88;;;31.30;40.60;;;;;;6199308;28;20439;-82
2022/05/10 16:01:19;;;;;;;5.25;1.90;;;31.40;40.20;;;;;;6216517;28;20054;-82
2022/05/10 16:05:25;;;;;;;3.85;2.08;;;31.50;40.70;;;;;;6204156;28;20057;-82
2022/05/10 16:17:25;;;;;;;6.47;2.13;;;30.80;41.80;;;;;;6186747;28;20089;-83
2022/05/10 16:52:11;;;;;;;3.47;2.45;;;29.50;45.80;;;;;;6004372;29;20452;-82
2022/05/10 16:55:14;;;;;;;10.48;2.90;;;29.40;46.90;;;;;;6099924;29;20056;-82
2022/05/10 17:02:26;;;;;;;4.05;2.30;;;29.10;48.40;;;;;;6125528;29;20498;-81
2022/05/10 17:09:45;;;;;;;2.67;2.40;;;29.00;49.40;;;;;;6154579;28;20043;-82
2022/05/10 17:20:37;;;;;;;5.40;2.10;;;28.70;52.30;;;;;;6177789;28;20054;-81
2022/05/10 17:39:12;;;;;;;3.83;2.80;;;27.80;56.70;;;;;;6137802;23;20058;-84
2022/05/10 17:42:14;;;;;;;12.43;3.00;;;27.70;58.10;;;;;;6207687;28;20065;-84
2022/05/10 17:45:17;;;;;;;3.15;2.58;;;27.50;59.10;;;;;;6210496;28;20053;-82
2022/05/10 17:48:19;;;;;;;4.90;3.10;;;27.40;59.70;;;;;;6205570;28;20045;-84